Kingsville

*Note: All times are displayed in the local standard time of the station location.
**Rain - Equipment is designed to accurately record liquid precipitation; under conditions when precipitation is not in liquid form, the data displayed may not properly reflect rainfall values.

Date Max Temp
(°C)
Min Temp
(°C)
Avg Temp
(°C)
Rain (mm) Avg RH (%)
Thu, Nov 15, 2018 2.0 -2.9 0.6 9.4 87.8
Wed, Nov 14, 2018 0.0 -10.1 -4.0 0.0 67.6
Tue, Nov 13, 2018 3.0 -4.4 -0.7 1.2 77.8
Mon, Nov 12, 2018 4.2 -5.4 0.6 1.0 81.2
Sun, Nov 11, 2018 3.9 -1.9 1.0 0.0 65.9
Sat, Nov 10, 2018 0.7 -5.0 -1.6 0.0 75.5
Fri, Nov 09, 2018 4.1 -1.5 2.3 10.8 86.1
DateTime Avg Temp (°C) Rain (mm) RH (%)
Fri, Nov 16, 2018 07:00 0.1 0.0 90.3
Fri, Nov 16, 2018 06:00 0.1 0.0 97.3
Fri, Nov 16, 2018 05:00 0.4 0.0 89.0
Fri, Nov 16, 2018 04:00 0.3 0.0 90.3
Fri, Nov 16, 2018 03:00 0.2 0.0 91.5
Fri, Nov 16, 2018 02:00 0.5 0.0 91.5
Fri, Nov 16, 2018 01:00 0.6 0.0 95.0
Fri, Nov 16, 2018 00:00 1.1 0.0 95.3
Thu, Nov 15, 2018 23:00 1.5 0.0 97.8
Thu, Nov 15, 2018 22:00 1.3 0.4 99.0
Thu, Nov 15, 2018 21:00 1.2 0.8 97.8
Thu, Nov 15, 2018 20:00 1.5 0.4 96.8
Thu, Nov 15, 2018 19:00 1.6 0.8 98.5
Thu, Nov 15, 2018 18:00 1.7 0.4 100.0
Thu, Nov 15, 2018 17:00 1.6 0.4 100.0
Thu, Nov 15, 2018 16:00 1.7 1.2 98.8
Thu, Nov 15, 2018 15:00 1.8 0.8 99.0
Thu, Nov 15, 2018 14:00 2.0 1.2 96.8
Thu, Nov 15, 2018 13:00 1.3 2.4 99.5
Thu, Nov 15, 2018 12:00 0.2 0.6 100.0
Thu, Nov 15, 2018 11:00 -0.1 0.0 100.0
Thu, Nov 15, 2018 10:00 0.0 0.0 93.3
Thu, Nov 15, 2018 09:00 1.1 0.0 73.5
Thu, Nov 15, 2018 08:00 1.7 0.0 67.0
Thu, Nov 15, 2018 07:00 1.5 0.0 64.0
Thu, Nov 15, 2018 06:00 0.8 0.0 65.3
Thu, Nov 15, 2018 05:00 0.3 0.0 67.0
Thu, Nov 15, 2018 04:00 -2.3 0.0 77.8
Thu, Nov 15, 2018 03:00 -2.4 0.0 76.5
Thu, Nov 15, 2018 02:00 -2.5 0.0 73.0
Thu, Nov 15, 2018 01:00 -2.9 0.0 70.8
Thu, Nov 15, 2018 00:00 -3.2 0.0 70.5
Wed, Nov 14, 2018 23:00 -3.2 0.0 68.5
Wed, Nov 14, 2018 22:00 -3.7 0.0 70.8
Wed, Nov 14, 2018 21:00 -3.9 0.0 74.3
Wed, Nov 14, 2018 20:00 -4.0 0.0 74.0
Wed, Nov 14, 2018 19:00 -3.6 0.0 69.8
Wed, Nov 14, 2018 18:00 -3.1 0.0 65.5
Wed, Nov 14, 2018 17:00 -2.2 0.0 63.5
Wed, Nov 14, 2018 16:00 -1.3 0.0 58.8
Wed, Nov 14, 2018 15:00 -0.6 0.0 54.0
Wed, Nov 14, 2018 14:00 -0.7 0.0 52.8
Wed, Nov 14, 2018 13:00 -0.5 0.0 53.0
Wed, Nov 14, 2018 12:00 -0.8 0.0 52.8
Wed, Nov 14, 2018 11:00 -1.6 0.0 55.8
Wed, Nov 14, 2018 10:00 -2.7 0.0 58.8
Wed, Nov 14, 2018 09:00 -5.7 0.0 70.5
Wed, Nov 14, 2018 08:00 -8.9 0.0 86.3


asterix Register now to access more data! asterix